Time;durP1;ratioP1;P1;durP2;ratioP2;P2;SDS_P1;SDS_P2;PMS_P1;PMS_P2;Temp;Humidity;BMP_temperature;BMP_pressure;BME280_temperature;BME280_humidity;BME280_pressure;Samples;Min_cycle;Max_cycle;Signal;HPM_P1;HPM_P2
2021/08/29 00:01:12;;;;;;;;;;;;;;;19.12;50.59;99896.31;3312961;29;19929;-73
2021/08/29 00:02:53;;;;;;;;;;;;;;;19.12;50.95;99893.63;3313243;29;19978;-73
2021/08/29 00:04:33;;;;;;;;;;;;;;;19.12;50.95;99894.44;3313066;29;19976;-73
2021/08/29 00:06:14;;;;;;;;;;;;;;;19.13;50.52;99898.78;3313227;29;20027;-73
2021/08/29 00:07:54;;;;;;;;;;;;;;;19.12;50.48;99889.03;3312419;29;20465;-73
2021/08/29 00:09:35;;;;;;;;;;;;;;;19.08;50.73;99885.19;3312709;29;19936;-74
2021/08/29 00:11:15;;;;;;;;;;;;;;;19.07;50.60;99880.03;3313214;29;19930;-73
2021/08/29 00:12:56;;;;;;;;;;;;;;;19.07;50.40;99883.53;3313052;29;19929;-74
2021/08/29 00:14:36;;;;;;;;;;;;;;;19.06;50.43;99878.41;3313055;29;19933;-74
2021/08/29 00:16:17;;;;;;;;;;;;;;;19.07;50.90;99874.63;3312646;29;19928;-74
2021/08/29 00:17:57;;;;;;;;;;;;;;;19.08;50.80;99881.69;3312674;29;20040;-74
2021/08/29 00:19:38;;;;;;;;;;;;;;;19.08;50.83;99879.78;3324225;29;20050;-73
2021/08/29 00:21:18;;;;;;;;;;;;;;;19.09;50.88;99886.00;3315266;29;19929;-73
2021/08/29 00:22:59;;;;;;;;;;;;;;;19.08;50.73;99890.59;3312768;29;19986;-73
2021/08/29 00:24:39;;;;;;;;;;;;;;;19.04;50.52;99892.13;3311849;29;19936;-73
2021/08/29 00:26:21;;;;;;;;;;;;;;;19.03;50.88;99884.31;3312410;29;19929;-73
2021/08/29 00:28:03;;;;;;;;;;;;;;;19.01;50.60;99881.84;3312296;29;20457;-73
2021/08/29 00:29:44;;;;;;;;;;;;;;;19.00;50.55;99880.22;3312886;29;19929;-73
2021/08/29 00:31:24;;;;;;;;;;;;;;;19.00;50.59;99880.22;3312937;29;20026;-73
2021/08/29 00:33:05;;;;;;;;;;;;;;;18.99;50.59;99873.16;3312649;29;20390;-74
2021/08/29 00:34:45;;;;;;;;;;;;;;;18.97;50.67;99875.25;3311833;29;19933;-73
2021/08/29 00:36:26;;;;;;;;;;;;;;;18.93;50.54;99864.16;3309174;29;19984;-71
2021/08/29 00:38:07;;;;;;;;;;;;;;;18.91;50.77;99862.75;3321537;29;19929;-72
2021/08/29 00:39:47;;;;;;;;;;;;;;;18.90;50.46;99874.63;3311569;29;20313;-71
2021/08/29 00:41:28;;;;;;;;;;;;;;;18.89;50.81;99870.28;3312581;29;19929;-72
2021/08/29 00:43:08;;;;;;;;;;;;;;;18.86;50.69;99877.00;3324335;29;20427;-72
2021/08/29 00:44:49;;;;;;;;;;;;;;;18.84;50.59;99872.91;3324443;29;19928;-72
2021/08/29 00:46:30;;;;;;;;;;;;;;;18.82;50.64;99861.50;3323678;29;20011;-73
2021/08/29 00:48:11;;;;;;;;;;;;;;;18.80;50.53;99858.25;3311118;29;20032;-74
2021/08/29 00:49:52;;;;;;;;;;;;;;;18.78;51.00;99858.50;3321795;29;19929;-73
2021/08/29 00:51:34;;;;;;;;;;;;;;;18.77;50.91;99864.13;3324229;29;19968;-74
2021/08/29 00:53:18;;;;;;;;;;;;;;;18.77;51.00;99866.81;3311562;29;20351;-74
2021/08/29 00:55:00;;;;;;;;;;;;;;;18.76;51.19;99854.41;3312529;29;19933;-73
2021/08/29 00:56:47;;;;;;;;;;;;;;;18.77;50.90;99858.72;3320815;29;19933;-73
2021/08/29 00:58:27;;;;;;;;;;;;;;;18.78;50.98;99855.78;3309221;29;19963;-74
2021/08/29 01:00:09;;;;;;;;;;;;;;;18.77;51.03;99853.31;3309056;29;19969;-74
2021/08/29 01:01:53;;;;;;;;;;;;;;;18.76;50.77;99851.69;3321725;29;19935;-74
2021/08/29 01:03:33;;;;;;;;;;;;;;;18.74;50.83;99854.59;3298798;29;19929;-72
2021/08/29 01:05:24;;;;;;;;;;;;;;;18.74;51.27;99854.59;3319430;29;19936;-73
2021/08/29 01:07:24;;;;;;;;;;;;;;;18.77;50.77;99850.63;3324025;29;19936;-74
2021/08/29 01:09:09;;;;;;;;;;;;;;;18.74;50.87;99836.53;3301083;29;19980;-72
2021/08/29 01:10:58;;;;;;;;;;;;;;;18.72;51.00;99845.94;3310224;29;19929;-72
2021/08/29 01:12:42;;;;;;;;;;;;;;;18.71;50.76;99842.41;3306537;29;20065;-73
2021/08/29 01:14:24;;;;;;;;;;;;;;;18.74;50.66;99846.50;3312531;29;19933;-76
2021/08/29 01:16:08;;;;;;;;;;;;;;;18.72;50.70;99849.47;3313292;29;19929;-72
2021/08/29 01:17:53;;;;;;;;;;;;;;;18.74;51.36;99850.03;3311357;29;19964;-71
2021/08/29 01:19:45;;;;;;;;;;;;;;;18.76;51.24;99846.28;3308963;29;19929;-71
2021/08/29 01:21:28;;;;;;;;;;;;;;;18.78;50.83;99841.47;3311258;29;19929;-72
2021/08/29 01:23:09;;;;;;;;;;;;;;;18.76;50.92;99849.81;3321664;29;20419;-71
2021/08/29 01:24:50;;;;;;;;;;;;;;;18.73;51.04;99836.78;3311430;29;19929;-72
2021/08/29 01:26:33;;;;;;;;;;;;;;;18.72;51.01;99841.34;3296377;30;20382;-73
2021/08/29 01:28:15;;;;;;;;;;;;;;;18.71;51.05;99842.41;3321966;29;19928;-71
2021/08/29 01:29:56;;;;;;;;;;;;;;;18.71;50.90;99841.59;3314036;29;19938;-72
2021/08/29 01:31:37;;;;;;;;;;;;;;;18.70;50.76;99839.97;3321606;29;20015;-72
2021/08/29 01:33:18;;;;;;;;;;;;;;;18.66;50.63;99845.00;3311249;29;19929;-71
2021/08/29 01:35:09;;;;;;;;;;;;;;;18.64;50.85;99832.81;3322418;29;20293;-73
2021/08/29 01:37:09;;;;;;;;;;;;;;;18.67;51.04;99841.28;3323341;29;20320;-72
2021/08/29 01:38:49;;;;;;;;;;;;;;;18.82;51.16;99839.91;3299096;29;20020;-72
2021/08/29 01:40:30;;;;;;;;;;;;;;;19.00;51.58;99836.97;3308783;29;19929;-72
2021/08/29 01:42:11;;;;;;;;;;;;;;;19.20;51.86;99836.47;3311525;29;20008;-73
2021/08/29 01:43:52;;;;;;;;;;;;;;;19.37;51.68;99837.25;3321477;29;19929;-72
2021/08/29 01:45:32;;;;;;;;;;;;;;;19.54;51.60;99837.22;3314146;29;20020;-73
2021/08/29 01:47:15;;;;;;;;;;;;;;;19.69;51.67;99838.50;3311270;29;20445;-73
2021/08/29 01:48:55;;;;;;;;;;;;;;;19.82;51.58;99836.25;3296767;30;20421;-73
2021/08/29 01:50:36;;;;;;;;;;;;;;;19.93;51.29;99839.06;3293823;29;19936;-72
2021/08/29 01:52:24;;;;;;;;;;;;;;;19.99;51.61;99838.06;3311271;29;19959;-73
2021/08/29 01:54:34;;;;;;;;;;;;;;;20.07;51.59;99839.53;3310676;29;20435;-72
2021/08/29 01:56:22;;;;;;;;;;;;;;;20.15;51.61;99831.75;3320681;29;20413;-73
2021/08/29 01:58:06;;;;;;;;;;;;;;;20.22;51.44;99831.56;3300758;29;19933;-73
2021/08/29 01:59:53;;;;;;;;;;;;;;;20.30;51.12;99839.22;3324224;29;20022;-72
2021/08/29 02:01:34;;;;;;;;;;;;;;;20.33;51.28;99837.91;3303546;29;19977;-72
2021/08/29 02:03:18;;;;;;;;;;;;;;;20.37;51.47;99833.63;3323925;29;19933;-73
2021/08/29 02:05:07;;;;;;;;;;;;;;;20.39;51.34;99837.69;3302290;29;20371;-72
2021/08/29 02:06:50;;;;;;;;;;;;;;;20.41;51.32;99840.16;3321777;29;20411;-71
2021/08/29 02:08:30;;;;;;;;;;;;;;;20.43;50.94;99838.81;3316405;29;20401;-72
2021/08/29 02:10:11;;;;;;;;;;;;;;;20.41;51.02;99838.25;3325837;29;19954;-71
2021/08/29 02:11:52;;;;;;;;;;;;;;;20.42;50.98;99836.34;3313623;29;20027;-71
2021/08/29 02:13:44;;;;;;;;;;;;;;;20.39;50.89;99836.88;3325049;29;20028;-73
2021/08/29 02:15:29;;;;;;;;;;;;;;;20.40;50.89;99838.53;3300726;29;19929;-71
2021/08/29 02:17:11;;;;;;;;;;;;;;;20.41;50.97;99832.03;3321656;29;20015;-72
2021/08/29 02:18:52;;;;;;;;;;;;;;;20.41;50.64;99834.72;3313327;29;20025;-72
2021/08/29 02:20:33;;;;;;;;;;;;;;;20.45;50.68;99830.44;3310802;29;19933;-72
2021/08/29 02:22:15;;;;;;;;;;;;;;;20.49;50.83;99829.66;3298371;30;21080;-72
2021/08/29 02:23:59;;;;;;;;;;;;;;;20.52;50.46;99825.63;3321565;29;19929;-71
2021/08/29 02:25:40;;;;;;;;;;;;;;;20.53;50.55;99831.88;3312368;29;19936;-72
2021/08/29 02:27:20;;;;;;;;;;;;;;;20.54;50.56;99828.09;3297381;29;19929;-72
2021/08/29 02:29:02;;;;;;;;;;;;;;;20.57;50.51;99835.72;3320776;29;19980;-72
2021/08/29 02:30:45;;;;;;;;;;;;;;;20.53;50.34;99829.97;3313143;29;20282;-72
2021/08/29 02:32:30;;;;;;;;;;;;;;;20.49;50.04;99832.38;3310993;29;20025;-73
2021/08/29 02:34:11;;;;;;;;;;;;;;;20.46;50.27;99832.88;3309926;29;19936;-73
2021/08/29 02:35:51;;;;;;;;;;;;;;;20.51;50.37;99834.00;3322210;29;20083;-72
2021/08/29 02:37:35;;;;;;;;;;;;;;;20.51;50.11;99839.44;3312110;29;19986;-72
2021/08/29 02:39:17;;;;;;;;;;;;;;;20.49;50.02;99836.97;3296826;29;19929;-72
2021/08/29 02:40:58;;;;;;;;;;;;;;;20.49;50.26;99837.78;3307088;29;19963;-73
2021/08/29 02:42:39;;;;;;;;;;;;;;;20.52;50.13;99830.22;3294253;30;19935;-72
2021/08/29 02:44:25;;;;;;;;;;;;;;;20.54;50.04;99828.94;3296349;29;20735;-71
2021/08/29 02:46:05;;;;;;;;;;;;;;;20.54;49.84;99830.78;3322884;29;19936;-72
2021/08/29 02:47:46;;;;;;;;;;;;;;;20.55;49.73;99835.16;3313023;29;20057;-71
2021/08/29 02:49:27;;;;;;;;;;;;;;;20.55;49.80;99836.00;3298051;29;20032;-71
2021/08/29 02:51:08;;;;;;;;;;;;;;;20.57;50.11;99833.81;3311328;29;19936;-72
2021/08/29 02:52:49;;;;;;;;;;;;;;;20.59;49.71;99833.56;3313008;29;19936;-71
2021/08/29 02:54:29;;;;;;;;;;;;;;;20.59;49.80;99830.88;3310378;29;20013;-72
2021/08/29 02:56:10;;;;;;;;;;;;;;;20.57;49.74;99833.00;3322547;29;19935;-71
2021/08/29 02:58:04;;;;;;;;;;;;;;;20.58;49.84;99845.50;3312613;29;19933;-71
2021/08/29 03:00:13;;;;;;;;;;;;;;;20.58;49.79;99845.50;3312949;29;20413;-72
2021/08/29 03:01:55;;;;;;;;;;;;;;;20.59;49.61;99841.69;3325387;29;19971;-72
2021/08/29 03:03:46;;;;;;;;;;;;;;;20.61;49.65;99836.84;3312948;29;19928;-72
2021/08/29 03:05:27;;;;;;;;;;;;;;;20.60;49.38;99835.19;3313962;29;19968;-72
2021/08/29 03:07:07;;;;;;;;;;;;;;;20.61;49.48;99839.56;3311988;29;19932;-71
2021/08/29 03:08:48;;;;;;;;;;;;;;;20.62;49.54;99841.19;3314303;29;19929;-73
2021/08/29 03:10:29;;;;;;;;;;;;;;;20.62;49.47;99841.19;3312939;29;19925;-72
2021/08/29 03:12:11;;;;;;;;;;;;;;;20.62;49.45;99841.19;3322720;29;20297;-72
2021/08/29 03:14:09;;;;;;;;;;;;;;;20.62;49.10;99841.19;3314073;29;19925;-72
2021/08/29 03:15:50;;;;;;;;;;;;;;;20.58;49.19;99846.31;3312275;29;19980;-72
2021/08/29 03:17:50;;;;;;;;;;;;;;;20.49;49.27;99840.50;3312429;29;19929;-72
2021/08/29 03:19:31;;;;;;;;;;;;;;;20.45;49.38;99847.50;3322500;29;20347;-72
2021/08/29 03:21:30;;;;;;;;;;;;;;;20.46;49.36;99843.72;3299801;29;20353;-73
2021/08/29 03:23:11;;;;;;;;;;;;;;;20.50;49.32;99838.63;3324795;29;19929;-73
2021/08/29 03:24:52;;;;;;;;;;;;;;;20.53;49.24;99843.53;3312391;29;19951;-72
2021/08/29 03:26:33;;;;;;;;;;;;;;;20.53;49.08;99840.00;3322046;29;19986;-72
2021/08/29 03:28:25;;;;;;;;;;;;;;;20.52;49.23;99835.63;3313422;29;19986;-72
2021/08/29 03:30:06;;;;;;;;;;;;;;;20.53;49.21;99843.53;3312186;29;20046;-72
2021/08/29 03:31:47;;;;;;;;;;;;;;;20.49;49.07;99837.78;3299897;29;20329;-72
2021/08/29 03:33:28;;;;;;;;;;;;;;;20.48;48.93;99836.16;3322417;29;20000;-72
2021/08/29 03:35:09;;;;;;;;;;;;;;;20.52;49.13;99841.06;3290234;30;19929;-71
2021/08/29 03:36:54;;;;;;;;;;;;;;;20.59;49.36;99836.28;3320775;29;19929;-73
2021/08/29 03:38:40;;;;;;;;;;;;;;;20.66;48.94;99837.72;3289727;30;19929;-73
2021/08/29 03:40:21;;;;;;;;;;;;;;;20.74;48.92;99838.31;3295721;29;19991;-72
2021/08/29 03:42:02;;;;;;;;;;;;;;;20.77;48.55;99844.03;3322371;29;19929;-75
2021/08/29 03:43:44;;;;;;;;;;;;;;;20.72;48.65;99837.75;3314744;29;20020;-70
2021/08/29 03:45:25;;;;;;;;;;;;;;;20.72;48.79;99835.03;3303182;29;20402;-71
2021/08/29 03:47:08;;;;;;;;;;;;;;;20.75;49.04;99839.94;3306585;29;19929;-74
2021/08/29 03:48:52;;;;;;;;;;;;;;;20.70;48.69;99838.00;3299770;29;19934;-72
2021/08/29 03:50:36;;;;;;;;;;;;;;;20.67;48.99;99827.69;3308191;29;19929;-72
2021/08/29 03:52:17;;;;;;;;;;;;;;;20.68;49.05;99835.56;3309817;29;19936;-71
2021/08/29 03:54:21;;;;;;;;;;;;;;;20.73;48.83;99826.69;3311950;29;19986;-72
2021/08/29 03:56:02;;;;;;;;;;;;;;;20.75;48.64;99829.09;3311869;29;20290;-73
2021/08/29 03:57:43;;;;;;;;;;;;;;;20.74;48.58;99827.47;3322294;29;20401;-74
2021/08/29 03:59:25;;;;;;;;;;;;;;;20.76;48.70;99826.16;3311729;29;19929;-76
2021/08/29 04:01:06;;;;;;;;;;;;;;;20.81;48.68;99828.09;3309708;29;19936;-71
2021/08/29 04:02:47;;;;;;;;;;;;;;;20.86;48.72;99820.81;3312770;29;20297;-70
2021/08/29 04:04:44;;;;;;;;;;;;;;;20.88;48.77;99824.09;3312072;29;19928;-71
2021/08/29 04:06:25;;;;;;;;;;;;;;;20.96;48.73;99830.09;3321789;29;19921;-71
2021/08/29 04:08:07;;;;;;;;;;;;;;;21.01;48.62;99822.81;3305501;29;19929;-70
2021/08/29 04:09:48;;;;;;;;;;;;;;;21.03;48.48;99820.66;3300618;29;19929;-71
2021/08/29 04:11:29;;;;;;;;;;;;;;;20.97;48.45;99831.72;3311967;29;20052;-71
2021/08/29 04:13:10;;;;;;;;;;;;;;;20.92;48.45;99832.50;3302886;29;19936;-71
2021/08/29 04:15:17;;;;;;;;;;;;;;;20.89;48.66;99828.41;3315827;29;19925;-70
2021/08/29 04:17:01;;;;;;;;;;;;;;;20.96;48.56;99835.50;3316905;29;20329;-71
2021/08/29 04:19:03;;;;;;;;;;;;;;;21.08;48.41;99833.44;3299187;29;19929;-71
2021/08/29 04:20:44;;;;;;;;;;;;;;;21.11;48.45;99838.31;3284895;30;20464;-70
2021/08/29 04:22:25;;;;;;;;;;;;;;;21.09;48.42;99844.03;3308910;29;20065;-70
2021/08/29 04:24:06;;;;;;;;;;;;;;;21.15;48.55;99846.78;3299443;29;19930;-70
2021/08/29 04:25:58;;;;;;;;;;;;;;;21.12;48.35;99842.69;3285957;30;19930;-70
2021/08/29 04:27:39;;;;;;;;;;;;;;;21.14;48.48;99840.50;3302483;29;19976;-69
2021/08/29 04:29:20;;;;;;;;;;;;;;;21.17;48.43;99836.47;3309286;29;19936;-70
2021/08/29 04:31:01;;;;;;;;;;;;;;;21.17;48.33;99837.31;3312523;29;20402;-69
2021/08/29 04:32:44;;;;;;;;;;;;;;;21.18;48.23;99828.06;3324585;29;20001;-70
2021/08/29 04:34:29;;;;;;;;;;;;;;;21.21;48.31;99832.16;3323773;29;19929;-70
2021/08/29 04:36:18;;;;;;;;;;;;;;;21.23;48.27;99841.66;3311505;29;19935;-72
2021/08/29 04:37:59;;;;;;;;;;;;;;;21.18;47.90;99847.06;3320850;29;19933;-74
2021/08/29 04:39:40;;;;;;;;;;;;;;;21.12;48.21;99839.97;3324271;29;20381;-74
2021/08/29 04:41:21;;;;;;;;;;;;;;;21.13;48.15;99837.00;3315117;29;19929;-74
2021/08/29 04:43:02;;;;;;;;;;;;;;;21.19;48.31;99835.13;3311588;29;19933;-74
2021/08/29 04:44:46;;;;;;;;;;;;;;;21.25;48.15;99833.28;3309642;29;20137;-74
2021/08/29 04:46:27;;;;;;;;;;;;;;;21.26;48.26;99834.91;3319754;29;19928;-75
2021/08/29 04:48:08;;;;;;;;;;;;;;;21.28;48.33;99830.03;3312379;29;19933;-72
2021/08/29 04:49:48;;;;;;;;;;;;;;;21.37;48.24;99833.06;3309715;29;19929;-74
2021/08/29 04:51:36;;;;;;;;;;;;;;;21.51;48.40;99834.28;3308372;29;19929;-74
2021/08/29 04:53:17;;;;;;;;;;;;;;;21.62;47.94;99838.66;3310315;29;19929;-73
2021/08/29 04:55:00;;;;;;;;;;;;;;;21.64;48.08;99831.09;3320728;29;19985;-73
2021/08/29 04:56:43;;;;;;;;;;;;;;;21.74;48.14;99844.69;3312539;29;19936;-72
2021/08/29 04:58:26;;;;;;;;;;;;;;;21.78;48.09;99848.50;3321665;29;20465;-72
2021/08/29 05:00:07;;;;;;;;;;;;;;;21.80;47.92;99845.53;3310270;29;19929;-72
2021/08/29 05:01:48;;;;;;;;;;;;;;;21.81;47.92;99847.16;3307246;29;19952;-73
2021/08/29 05:03:29;;;;;;;;;;;;;;;21.81;48.02;99846.34;3307758;29;19948;-72
2021/08/29 05:05:10;;;;;;;;;;;;;;;21.83;48.08;99849.59;3308497;29;19933;-75
2021/08/29 05:06:51;;;;;;;;;;;;;;;21.82;48.06;99848.00;3324177;29;19935;-74
2021/08/29 05:08:33;;;;;;;;;;;;;;;21.84;48.28;99846.66;3323323;29;19928;-70
2021/08/29 05:10:14;;;;;;;;;;;;;;;21.90;48.11;99845.56;3313942;29;20301;-73
2021/08/29 05:12:15;;;;;;;;;;;;;;;21.88;47.85;99846.91;3299701;30;20418;-72
2021/08/29 05:13:57;;;;;;;;;;;;;;;21.87;48.02;99839.88;3299152;29;19959;-72
2021/08/29 05:15:38;;;;;;;;;;;;;;;21.85;48.14;99840.13;3308833;29;19928;-71
2021/08/29 05:17:18;;;;;;;;;;;;;;;21.80;48.17;99839.28;3299918;29;19929;-73
2021/08/29 05:19:04;;;;;;;;;;;;;;;21.82;48.55;99834.41;3322007;29;20016;-72
2021/08/29 05:20:45;;;;;;;;;;;;;;;21.88;48.29;99836.06;3310885;29;19929;-71
2021/08/29 05:22:44;;;;;;;;;;;;;;;21.99;48.35;99832.28;3312261;29;19929;-72
2021/08/29 05:25:02;;;;;;;;;;;;;;;22.02;47.86;99831.78;3330614;29;19940;-73
2021/08/29 05:26:43;;;;;;;;;;;;;;;22.02;48.02;99830.94;3311506;29;19929;-71
2021/08/29 05:28:24;;;;;;;;;;;;;;;22.09;47.84;99826.09;3308632;29;19929;-73
2021/08/29 05:30:06;;;;;;;;;;;;;;;22.18;48.01;99835.34;3308755;29;19929;-72
2021/08/29 05:31:47;;;;;;;;;;;;;;;22.28;47.78;99835.41;3312349;29;19929;-72
2021/08/29 05:33:33;;;;;;;;;;;;;;;22.40;47.77;99833.25;3324637;29;20366;-71
2021/08/29 05:35:13;;;;;;;;;;;;;;;22.47;47.47;99833.00;3326651;29;20027;-69
2021/08/29 05:36:54;;;;;;;;;;;;;;;22.55;47.41;99835.16;3313799;29;19936;-72
2021/08/29 05:38:34;;;;;;;;;;;;;;;22.61;47.29;99836.81;3310630;29;19929;-73
2021/08/29 05:40:19;;;;;;;;;;;;;;;22.65;47.27;99840.63;3326424;29;20457;-74
2021/08/29 05:42:17;;;;;;;;;;;;;;;22.75;47.05;99844.44;3315236;29;19929;-72
2021/08/29 05:44:08;;;;;;;;;;;;;;;22.79;46.88;99846.31;3326349;29;19928;-71
2021/08/29 05:45:53;;;;;;;;;;;;;;;22.80;46.78;99839.81;3326496;29;19928;-73
2021/08/29 05:47:33;;;;;;;;;;;;;;;22.78;46.58;99833.81;3321197;29;19929;-72
2021/08/29 05:49:14;;;;;;;;;;;;;;;22.72;46.05;99831.38;3314434;29;19929;-73
2021/08/29 05:50:55;;;;;;;;;;;;;;;22.58;46.67;99837.34;3314752;29;19928;-73
2021/08/29 05:52:36;;;;;;;;;;;;;;;22.54;46.67;99838.97;3313598;29;19995;-72
2021/08/29 05:54:17;;;;;;;;;;;;;;;22.55;46.65;99834.34;3323749;29;19929;-73
2021/08/29 05:55:58;;;;;;;;;;;;;;;22.59;46.37;99828.13;3313713;29;19957;-72
2021/08/29 05:57:39;;;;;;;;;;;;;;;22.70;46.05;99837.09;3323289;29;20002;-71
2021/08/29 05:59:21;;;;;;;;;;;;;;;22.80;46.18;99836.28;3313716;29;20441;-73
2021/08/29 06:01:02;;;;;;;;;;;;;;;22.92;45.90;99850.38;3323323;29;19928;-73
2021/08/29 06:02:44;;;;;;;;;;;;;;;23.06;45.81;99846.06;3325244;29;20421;-74
2021/08/29 06:04:25;;;;;;;;;;;;;;;23.16;45.45;99834.38;3313638;29;20039;-73
2021/08/29 06:06:22;;;;;;;;;;;;;;;23.26;45.61;99833.56;3325542;29;19929;-73
2021/08/29 06:08:05;;;;;;;;;;;;;;;23.42;45.13;99831.63;3313180;29;20398;-72
2021/08/29 06:09:46;;;;;;;;;;;;;;;23.64;44.72;99831.25;3311038;29;20345;-72
2021/08/29 06:11:28;;;;;;;;;;;;;;;23.87;44.49;99827.91;3323722;29;19935;-73
2021/08/29 06:13:08;;;;;;;;;;;;;;;24.09;44.12;99835.72;3312878;29;19929;-70
2021/08/29 06:14:51;;;;;;;;;;;;;;;24.30;43.75;99836.41;3332710;29;19928;-71
2021/08/29 06:16:34;;;;;;;;;;;;;;;24.52;43.56;99832.47;3314625;29;20000;-73
2021/08/29 06:18:16;;;;;;;;;;;;;;;24.69;43.12;99832.09;3328648;29;19985;-73
2021/08/29 06:19:57;;;;;;;;;;;;;;;24.81;42.82;99825.19;3324703;29;19939;-73
2021/08/29 06:21:38;;;;;;;;;;;;;;;24.93;42.77;99832.16;3334752;29;19920;-73
2021/08/29 06:23:19;;;;;;;;;;;;;;;25.02;42.56;99825.81;3324620;29;19929;-74
2021/08/29 06:25:18;;;;;;;;;;;;;;;25.15;42.63;99829.78;3325789;29;19929;-72
2021/08/29 06:27:34;;;;;;;;;;;;;;;25.27;42.37;99831.31;3315136;29;20465;-72
2021/08/29 06:29:34;;;;;;;;;;;;;;;25.37;41.82;99828.47;3333025;29;19928;-73
2021/08/29 06:31:33;;;;;;;;;;;;;;;25.56;41.99;99823.91;3334817;29;19928;-73
2021/08/29 06:33:17;;;;;;;;;;;;;;;25.67;41.27;99824.59;3331362;29;19936;-72
2021/08/29 06:35:08;;;;;;;;;;;;;;;25.79;41.19;99821.44;3321640;29;19929;-72
2021/08/29 06:36:58;;;;;;;;;;;;;;;25.95;41.02;99835.75;3330475;29;19921;-72
2021/08/29 06:38:40;;;;;;;;;;;;;;;26.08;40.54;99830.38;3344369;29;19980;-72
2021/08/29 06:40:21;;;;;;;;;;;;;;;26.16;40.23;99830.84;3333547;29;19975;-74
2021/08/29 06:42:02;;;;;;;;;;;;;;;26.21;40.17;99833.50;3343846;29;19944;-73
2021/08/29 06:43:44;;;;;;;;;;;;;;;26.25;40.26;99829.03;3333483;29;19964;-73
2021/08/29 06:45:55;;;;;;;;;;;;;;;26.33;39.98;99831.09;3342751;29;19934;-73
2021/08/29 06:47:49;;;;;;;;;;;;;;;26.43;40.21;99830.97;3334831;29;19928;-73
2021/08/29 06:49:53;;;;;;;;;;;;;;;26.50;39.50;99834.13;3323092;29;19929;-72
2021/08/29 06:51:52;;;;;;;;;;;;;;;26.64;39.77;99836.13;3333705;29;19929;-72
2021/08/29 06:53:53;;;;;;;;;;;;;;;26.81;39.67;99832.88;3331691;29;19958;-72
2021/08/29 06:55:52;;;;;;;;;;;;;;;26.95;39.25;99829.06;3328505;29;19935;-72
2021/08/29 06:57:51;;;;;;;;;;;;;;;26.98;39.33;99828.47;3314694;29;19929;-71
2021/08/29 06:59:32;;;;;;;;;;;;;;;26.96;38.96;99833.41;3312402;29;19929;-72
2021/08/29 07:01:13;;;;;;;;;;;;;;;26.94;39.45;99834.84;3313237;29;19935;-73
2021/08/29 07:02:53;;;;;;;;;;;;;;;27.00;39.06;99832.81;3335243;29;20352;-74
2021/08/29 07:04:34;;;;;;;;;;;;;;;27.10;39.61;99827.97;3324958;29;19929;-73
2021/08/29 07:06:18;;;;;;;;;;;;;;;27.16;38.74;99828.72;3323447;29;20068;-73
2021/08/29 07:08:17;;;;;;;;;;;;;;;27.09;38.68;99831.03;3322169;29;19936;-73
2021/08/29 07:09:59;;;;;;;;;;;;;;;26.95;39.01;99828.25;3325331;29;19932;-72
2021/08/29 07:11:39;;;;;;;;;;;;;;;26.75;39.30;99821.22;3316487;29;19956;-72
2021/08/29 07:13:46;;;;;;;;;;;;;;;26.52;39.31;99818.28;3299522;29;19937;-74
2021/08/29 07:15:27;;;;;;;;;;;;;;;26.35;39.68;99817.16;3324711;29;20367;-74
2021/08/29 07:17:08;;;;;;;;;;;;;;;26.20;39.85;99804.53;3300489;29;19932;-74
2021/08/29 07:18:49;;;;;;;;;;;;;;;26.07;39.91;99800.63;3310442;29;19936;-74
2021/08/29 07:20:51;;;;;;;;;;;;;;;25.93;40.05;99799.72;3303203;29;19982;-74
2021/08/29 07:22:50;;;;;;;;;;;;;;;25.77;39.87;99807.28;3312670;29;20034;-74
2021/08/29 07:24:50;;;;;;;;;;;;;;;25.55;40.38;99808.63;3314082;29;19978;-74
2021/08/29 07:26:50;;;;;;;;;;;;;;;25.37;40.76;99804.72;3313762;29;19968;-73
2021/08/29 07:28:51;;;;;;;;;;;;;;;25.34;40.75;99805.31;3313945;29;19925;-73
2021/08/29 07:30:52;;;;;;;;;;;;;;;25.48;40.72;99810.91;3314499;29;19936;-73
2021/08/29 07:32:35;;;;;;;;;;;;;;;25.73;40.49;99806.22;3335975;29;20381;-72
2021/08/29 07:34:16;;;;;;;;;;;;;;;25.96;39.92;99810.06;3314769;29;20310;-76
2021/08/29 07:36:16;;;;;;;;;;;;;;;26.28;39.70;99806.59;3323736;29;19929;-74
2021/08/29 07:37:58;;;;;;;;;;;;;;;26.57;39.51;99811.13;3337715;29;19933;-74
2021/08/29 07:39:38;;;;;;;;;;;;;;;26.80;39.22;99807.44;3324044;29;19929;-75
2021/08/29 07:41:21;;;;;;;;;;;;;;;27.00;38.47;99806.25;3324355;29;19985;-73
2021/08/29 07:43:03;;;;;;;;;;;;;;;27.16;38.49;99804.09;3325029;29;20419;-74
2021/08/29 07:44:43;;;;;;;;;;;;;;;27.35;38.16;99796.63;3334647;29;19929;-75
2021/08/29 07:46:29;;;;;;;;;;;;;;;27.59;37.70;99795.59;3316952;29;20464;-74
2021/08/29 07:48:11;;;;;;;;;;;;;;;27.85;37.43;99787.66;3318225;29;20027;-73
2021/08/29 07:49:53;;;;;;;;;;;;;;;28.12;37.23;99807.94;3325290;29;20334;-73
2021/08/29 07:51:36;;;;;;;;;;;;;;;28.33;37.27;99797.31;3316549;29;19929;-73
2021/08/29 07:53:39;;;;;;;;;;;;;;;28.52;36.92;99792.47;3310702;29;19929;-73
2021/08/29 07:55:43;;;;;;;;;;;;;;;28.76;36.81;99794.06;3314557;29;20470;-73
2021/08/29 07:57:39;;;;;;;;;;;;;;;28.92;36.54;99787.09;3311349;29;19936;-73
2021/08/29 07:59:29;;;;;;;;;;;;;;;29.03;36.40;99784.88;3311853;29;19929;-74
2021/08/29 08:01:10;;;;;;;;;;;;;;;29.11;36.45;99779.44;3308950;29;19968;-73
2021/08/29 08:02:51;;;;;;;;;;;;;;;29.20;35.79;99778.66;3312738;29;19936;-76
2021/08/29 08:04:50;;;;;;;;;;;;;;;29.38;35.98;99780.38;3312714;29;19929;-74
2021/08/29 08:06:50;;;;;;;;;;;;;;;29.56;35.32;99776.53;3312934;29;19957;-76
2021/08/29 08:08:49;;;;;;;;;;;;;;;29.69;35.50;99769.34;3313122;29;19935;-73
2021/08/29 08:10:50;;;;;;;;;;;;;;;29.83;35.08;99771.94;3309461;29;20305;-75
2021/08/29 08:12:44;;;;;;;;;;;;;;;29.97;35.02;99778.09;3312129;29;19928;-74
2021/08/29 08:14:25;;;;;;;;;;;;;;;30.11;34.70;99774.38;3296797;29;19932;-75
2021/08/29 08:16:06;;;;;;;;;;;;;;;30.22;34.83;99778.41;3319247;29;20432;-75
2021/08/29 08:17:48;;;;;;;;;;;;;;;30.33;34.63;99779.72;3314144;29;19985;-75
2021/08/29 08:19:29;;;;;;;;;;;;;;;30.42;34.72;99777.78;3311706;29;20461;-75
2021/08/29 08:21:10;;;;;;;;;;;;;;;30.51;34.25;99785.22;3309502;29;19929;-74
2021/08/29 08:22:59;;;;;;;;;;;;;;;30.50;34.53;99784.41;3313194;29;20393;-73
2021/08/29 08:24:58;;;;;;;;;;;;;;;30.55;34.55;99775.19;3313318;29;19968;-73
2021/08/29 08:26:57;;;;;;;;;;;;;;;30.63;34.42;99777.91;3312953;29;19921;-74
2021/08/29 08:28:57;;;;;;;;;;;;;;;30.72;34.25;99780.69;3313372;29;20397;-75
2021/08/29 08:31:04;;;;;;;;;;;;;;;30.91;34.29;99779.53;3305216;29;19921;-75
2021/08/29 08:33:05;;;;;;;;;;;;;;;31.09;33.76;99772.81;3301246;29;19929;-75
2021/08/29 08:35:05;;;;;;;;;;;;;;;31.34;33.86;99778.53;3313686;29;19929;-74
2021/08/29 08:36:51;;;;;;;;;;;;;;;31.54;33.34;99761.25;3316689;29;19921;-76
2021/08/29 08:39:00;;;;;;;;;;;;;;;31.71;33.28;99763.91;3326503;29;19984;-74
2021/08/29 08:40:58;;;;;;;;;;;;;;;31.82;33.49;99767.09;3313300;29;19978;-74
2021/08/29 08:42:57;;;;;;;;;;;;;;;31.91;33.26;99764.28;3312612;29;20462;-74
2021/08/29 08:44:57;;;;;;;;;;;;;;;31.97;32.76;99762.16;3312702;29;19977;-74
2021/08/29 08:46:57;;;;;;;;;;;;;;;32.04;33.13;99762.41;3311936;29;20458;-73
2021/08/29 08:48:56;;;;;;;;;;;;;;;31.99;32.97;99749.66;3313020;29;19929;-73
2021/08/29 08:50:55;;;;;;;;;;;;;;;31.95;33.24;99759.72;3310684;29;19929;-75
2021/08/29 08:52:56;;;;;;;;;;;;;;;31.85;32.97;99754.59;3309222;29;20031;-74
2021/08/29 08:54:56;;;;;;;;;;;;;;;31.79;33.20;99755.94;3313005;29;19929;-75
2021/08/29 08:56:56;;;;;;;;;;;;;;;31.70;33.17;99754.06;3313092;29;20023;-73
2021/08/29 08:59:12;;;;;;;;;;;;;;;31.66;33.25;99755.84;3312211;29;20393;-74
2021/08/29 09:01:11;;;;;;;;;;;;;;;31.76;33.32;99754.66;3311679;29;19983;-74
2021/08/29 09:02:58;;;;;;;;;;;;;;;31.86;32.87;99756.22;3325061;29;19925;-73
2021/08/29 09:04:55;;;;;;;;;;;;;;;31.96;33.25;99757.78;3313279;29;19929;-74
2021/08/29 09:06:37;;;;;;;;;;;;;;;32.04;32.68;99757.72;3311720;29;19929;-74
2021/08/29 09:08:18;;;;;;;;;;;;;;;32.16;32.60;99754.19;3321630;29;19933;-74
2021/08/29 09:10:00;;;;;;;;;;;;;;;32.23;32.40;99756.44;3316847;29;19929;-72
2021/08/29 09:11:41;;;;;;;;;;;;;;;32.29;32.12;99757.81;3312336;29;19929;-73
2021/08/29 09:13:22;;;;;;;;;;;;;;;32.33;32.33;99747.72;3312806;29;19928;-73